Time;durP1;ratioP1;P1;durP2;ratioP2;P2;SDS_P1;SDS_P2;PMS_P1;PMS_P2;Temp;Humidity;BMP_temperature;BMP_pressure;BME280_temperature;BME280_humidity;BME280_pressure;Samples;Min_cycle;Max_cycle;Signal;HPM_P1;HPM_P2
2022/12/02 00:02:04;;;;;;;30.93;14.60;;;;;;;2.02;100.00;102241.88;5093289;28;20515;-66
2022/12/02 00:04:31;;;;;;;35.13;15.50;;;;;;;2.06;100.00;102237.78;5093847;28;20452;-68
2022/12/02 00:07:00;;;;;;;48.00;16.27;;;;;;;2.13;100.00;102235.97;5093093;28;20466;-67
2022/12/02 00:09:30;;;;;;;32.53;14.77;;;;;;;2.10;100.00;102235.53;5094019;28;20454;-68
2022/12/02 00:11:57;;;;;;;36.60;15.67;;;;;;;2.11;100.00;102234.50;5092709;28;20575;-68
2022/12/02 00:14:26;;;;;;;34.63;15.57;;;;;;;2.16;100.00;102238.19;5094018;28;20455;-68
2022/12/02 00:16:53;;;;;;;41.03;15.87;;;;;;;2.17;100.00;102233.69;5093047;28;20893;-68
2022/12/02 00:19:20;;;;;;;37.27;15.07;;;;;;;2.13;100.00;102227.94;5093562;28;20483;-68
2022/12/02 00:21:47;;;;;;;44.37;15.73;;;;;;;2.09;100.00;102229.38;5092611;28;20499;-68
2022/12/02 00:24:13;;;;;;;33.53;13.90;;;;;;;2.11;100.00;102224.63;5093734;28;20436;-67
2022/12/02 00:26:40;;;;;;;34.17;15.87;;;;;;;2.01;100.00;102221.53;5092724;28;20487;-68
2022/12/02 00:29:07;;;;;;;36.03;15.73;;;;;;;2.04;100.00;102226.50;5093757;28;20873;-68
2022/12/02 00:31:35;;;;;;;41.90;16.90;;;;;;;2.02;100.00;102223.19;5092738;28;20571;-68
2022/12/02 00:34:02;;;;;;;38.27;15.67;;;;;;;2.04;100.00;102218.47;5093619;28;20480;-68
2022/12/02 00:36:29;;;;;;;42.40;14.57;;;;;;;1.99;100.00;102226.25;5092315;28;20447;-68
2022/12/02 00:38:56;;;;;;;36.40;14.70;;;;;;;2.06;100.00;102215.59;5073385;28;20429;-67
2022/12/02 00:41:23;;;;;;;44.63;16.20;;;;;;;2.09;100.00;102216.00;5072984;28;20496;-68
2022/12/02 00:46:36;;;;;;;28.50;13.00;;;;;;;2.02;100.00;102213.31;5092562;28;20507;-67
2022/12/02 00:49:06;;;;;;;44.50;15.47;;;;;;;2.07;100.00;102215.38;5093463;28;20968;-68
2022/12/02 00:51:33;;;;;;;37.60;16.10;;;;;;;2.10;100.00;102209.63;5092583;28;20487;-68
2022/12/02 00:54:00;;;;;;;34.40;13.87;;;;;;;2.14;100.00;102212.72;5093310;28;20539;-68
2022/12/02 00:56:26;;;;;;;41.93;16.27;;;;;;;2.10;100.00;102211.47;5092578;28;20440;-68
2022/12/02 00:58:53;;;;;;;45.60;16.17;;;;;;;2.11;100.00;102207.78;5093145;28;20487;-68
2022/12/02 01:01:20;;;;;;;39.87;15.60;;;;;;;2.11;100.00;102210.44;5093303;28;20488;-68
2022/12/02 01:03:48;;;;;;;32.57;13.00;;;;;;;2.10;100.00;102206.97;5088808;28;21001;-67
2022/12/02 01:06:15;;;;;;;38.07;16.33;;;;;;;2.10;100.00;102212.31;5073117;28;20510;-68
2022/12/02 01:08:42;;;;;;;36.40;13.83;;;;;;;2.08;100.00;102214.38;5092054;28;20448;-67
2022/12/02 01:11:09;;;;;;;36.93;14.67;;;;;;;2.05;100.00;102206.75;5092275;28;20595;-67
2022/12/02 01:13:36;;;;;;;41.50;14.73;;;;;;;2.09;100.00;102210.66;5092317;28;20499;-68
2022/12/02 01:16:03;;;;;;;39.33;15.10;;;;;;;2.16;100.00;102213.31;5093175;28;20541;-68
2022/12/02 01:18:29;;;;;;;46.13;16.83;;;;;;;2.09;100.00;102212.50;5092114;28;20834;-67
2022/12/02 01:20:57;;;;;;;37.20;14.97;;;;;;;2.13;100.00;102217.25;5092777;28;20510;-67
2022/12/02 01:23:24;;;;;;;44.73;16.40;;;;;;;2.05;100.00;102214.78;5091925;28;20552;-67
2022/12/02 01:25:51;;;;;;;44.07;16.30;;;;;;;2.09;100.00;102213.34;5092820;28;20436;-67
2022/12/02 01:28:18;;;;;;;36.50;15.13;;;;;;;2.11;100.00;102207.78;5091952;28;20957;-67
2022/12/02 01:30:45;;;;;;;38.70;15.37;;;;;;;2.00;100.00;102207.38;5092650;28;20491;-67
2022/12/02 01:33:12;;;;;;;39.60;16.50;;;;;;;2.07;100.00;102207.34;5090755;28;20967;-67
2022/12/02 01:35:38;;;;;;;39.13;15.27;;;;;;;2.14;100.00;102210.88;5093021;28;20450;-67
2022/12/02 01:38:06;;;;;;;43.10;15.93;;;;;;;2.13;100.00;102211.09;5092106;28;20462;-68
2022/12/02 01:40:33;;;;;;;35.10;15.13;;;;;;;2.09;100.00;102202.66;5092904;28;20468;-68
2022/12/02 01:43:00;;;;;;;49.13;16.00;;;;;;;2.00;100.00;102206.53;5091786;28;20988;-68
2022/12/02 01:45:27;;;;;;;33.17;15.50;;;;;;;1.94;100.00;102212.69;5093185;28;20531;-67
2022/12/02 01:47:54;;;;;;;41.93;15.10;;;;;;;2.07;100.00;102204.69;5091949;28;20455;-68
2022/12/02 01:50:21;;;;;;;33.00;15.13;;;;;;;2.03;100.00;102206.13;5096588;28;20502;-67
2022/12/02 01:52:47;;;;;;;38.40;14.23;;;;;;;2.09;100.00;102204.50;5095939;28;20567;-67
2022/12/02 01:55:20;;;;;;;37.30;14.43;;;;;;;2.10;100.00;102201.63;5096630;28;20443;-67
2022/12/02 01:57:47;;;;;;;33.83;12.83;;;;;;;2.15;100.00;102199.16;5095385;28;20950;-67
2022/12/02 02:00:15;;;;;;;40.67;16.30;;;;;;;2.14;100.00;102191.34;5096469;28;20467;-66
2022/12/02 02:02:42;;;;;;;34.00;14.40;;;;;;;2.14;100.00;102194.00;5095296;28;20532;-68
2022/12/02 02:05:12;;;;;;;34.83;14.77;;;;;;;2.18;100.00;102196.06;5094941;28;20463;-68
2022/12/02 02:07:40;;;;;;;42.20;17.27;;;;;;;2.19;100.00;102191.53;5096394;28;20471;-67
2022/12/02 02:10:08;;;;;;;38.13;15.40;;;;;;;2.20;100.00;102185.97;5095910;28;20551;-68
2022/12/02 02:12:36;;;;;;;41.10;15.10;;;;;;;2.24;100.00;102187.22;5096228;28;20480;-68
2022/12/02 02:15:04;;;;;;;35.20;13.93;;;;;;;2.25;100.00;102188.84;5095394;28;20463;-68
2022/12/02 02:17:31;;;;;;;44.43;15.70;;;;;;;2.27;100.00;102194.00;5095410;28;20492;-68
2022/12/02 02:19:58;;;;;;;40.10;15.67;;;;;;;2.23;100.00;102190.94;5094722;28;20571;-68
2022/12/02 02:22:29;;;;;;;41.23;15.23;;;;;;;2.18;100.00;102193.41;5096194;28;20421;-68
2022/12/02 02:24:57;;;;;;;34.90;13.30;;;;;;;2.13;100.00;102187.84;5093175;28;20456;-69
2022/12/02 02:27:24;;;;;;;35.40;13.53;;;;;;;2.11;100.00;102181.06;5096061;28;20484;-69
2022/12/02 02:29:50;;;;;;;45.40;14.30;;;;;;;2.11;100.00;102181.06;5094707;28;20892;-69
2022/12/02 02:32:17;;;;;;;34.33;13.30;;;;;;;2.17;100.00;102182.88;5095865;28;20476;-70
2022/12/02 02:34:44;;;;;;;34.37;14.73;;;;;;;2.12;100.00;102188.84;5094253;28;20461;-69
2022/12/02 02:37:11;;;;;;;40.73;15.87;;;;;;;2.12;100.00;102191.53;5095422;28;20439;-69
2022/12/02 02:39:37;;;;;;;36.20;15.53;;;;;;;2.00;100.00;102187.84;5094841;28;20460;-69
2022/12/02 02:42:05;;;;;;;34.27;14.70;;;;;;;2.06;100.00;102184.34;5095742;28;20436;-68
2022/12/02 02:44:32;;;;;;;34.50;14.93;;;;;;;2.00;100.00;102195.84;5094971;28;20463;-69
2022/12/02 02:46:59;;;;;;;35.30;14.00;;;;;;;2.01;100.00;102192.97;5094813;28;20443;-68
2022/12/02 02:49:26;;;;;;;36.60;14.33;;;;;;;2.01;100.00;102186.81;5080470;28;20465;-68
2022/12/02 02:51:52;;;;;;;38.43;16.10;;;;;;;2.05;100.00;102180.03;5095125;28;20488;-70
2022/12/02 02:54:19;;;;;;;38.93;14.77;;;;;;;2.13;100.00;102174.47;5094762;28;20472;-69
2022/12/02 02:56:46;;;;;;;34.50;14.53;;;;;;;2.21;100.00;102176.97;5093992;28;20548;-69
2022/12/02 02:59:15;;;;;;;34.00;14.93;;;;;;;2.19;100.00;102179.00;5094053;28;20527;-68
2022/12/02 03:01:45;;;;;;;35.93;13.43;;;;;;;2.18;100.00;102177.34;5094516;28;20473;-69
2022/12/02 03:04:15;;;;;;;37.77;15.50;;;;;;;2.15;100.00;102179.63;5094214;28;20970;-68
2022/12/02 03:06:43;;;;;;;39.67;14.20;;;;;;;2.07;100.00;102185.97;5095303;28;20834;-68
2022/12/02 03:09:13;;;;;;;39.80;14.47;;;;;;;2.02;100.00;102178.56;5094387;28;20543;-68
2022/12/02 03:11:41;;;;;;;31.37;13.80;;;;;;;2.01;100.00;102178.78;5094218;28;20488;-68
2022/12/02 03:14:10;;;;;;;34.57;14.00;;;;;;;2.03;100.00;102176.72;5094430;28;20511;-68
2022/12/02 03:16:38;;;;;;;34.83;14.10;;;;;;;2.03;100.00;102174.88;5094797;28;20444;-68
2022/12/02 03:19:06;;;;;;;39.60;14.30;;;;;;;1.93;100.00;102179.81;5094028;28;20991;-68
2022/12/02 03:21:33;;;;;;;27.80;12.87;;;;;;;1.97;100.00;102175.69;5093457;28;20543;-68
2022/12/02 03:24:02;;;;;;;40.30;15.73;;;;;;;2.03;100.00;102176.72;5094930;28;20498;-68
2022/12/02 03:26:30;;;;;;;41.50;14.27;;;;;;;2.03;100.00;102174.88;5094169;28;20444;-68
2022/12/02 03:28:57;;;;;;;31.03;14.20;;;;;;;2.00;100.00;102163.78;5094493;28;20807;-68
2022/12/02 03:31:24;;;;;;;42.93;14.43;;;;;;;1.90;100.00;102166.84;5093861;28;20480;-68
2022/12/02 03:33:53;;;;;;;29.23;13.37;;;;;;;2.00;100.00;102177.16;5093837;28;20456;-69
2022/12/02 03:36:20;;;;;;;35.20;15.03;;;;;;;2.08;100.00;102171.59;5093032;28;20454;-69
2022/12/02 03:38:47;;;;;;;32.83;15.00;;;;;;;2.07;100.00;102167.28;5094344;28;20448;-69
2022/12/02 03:41:14;;;;;;;33.30;13.43;;;;;;;1.95;100.00;102171.59;5084314;28;20928;-69
2022/12/02 03:43:40;;;;;;;32.60;14.23;;;;;;;1.92;100.00;102162.13;5084196;28;20478;-69
2022/12/02 03:46:08;;;;;;;37.30;15.17;;;;;;;1.98;100.00;102160.47;5094186;28;20444;-69
2022/12/02 03:48:37;;;;;;;33.93;14.20;;;;;;;2.00;100.00;102163.78;5093462;28;20468;-69
2022/12/02 03:51:05;;;;;;;33.80;13.77;;;;;;;2.00;100.00;102158.44;5094314;28;20467;-69
2022/12/02 03:53:32;;;;;;;32.17;13.47;;;;;;;1.91;100.00;102154.34;5093363;28;20920;-69
2022/12/02 03:56:02;;;;;;;35.37;14.70;;;;;;;1.85;100.00;102161.28;5094296;28;20822;-69
2022/12/02 03:58:37;;;;;;;27.77;11.97;;;;;;;1.81;100.00;102164.56;5093048;28;20492;-69
2022/12/02 04:01:04;;;;;;;29.03;12.67;;;;;;;1.87;100.00;102166.44;5094143;28;20458;-69
2022/12/02 04:03:31;;;;;;;36.83;13.60;;;;;;;1.97;100.00;102156.16;5092997;28;20463;-69
2022/12/02 04:05:57;;;;;;;37.13;13.90;;;;;;;2.06;100.00;102144.25;5094147;28;20928;-69
2022/12/02 04:08:25;;;;;;;36.93;15.57;;;;;;;2.10;100.00;102155.34;5093287;28;20460;-69
2022/12/02 04:10:52;;;;;;;36.87;14.70;;;;;;;2.09;100.00;102154.53;5092959;28;20492;-70
2022/12/02 04:13:19;;;;;;;31.57;11.77;;;;;;;2.21;100.00;102152.91;5092889;28;20495;-69
2022/12/02 04:15:45;;;;;;;62.70;18.20;;;;;;;2.09;100.00;102148.38;5093933;28;20555;-70
2022/12/02 04:18:12;;;;;;;38.73;14.00;;;;;;;2.14;100.00;102151.25;5092941;28;20960;-68
2022/12/02 04:20:38;;;;;;;31.87;12.57;;;;;;;2.15;100.00;102145.69;5093545;28;20477;-67
2022/12/02 04:23:05;;;;;;;36.20;13.97;;;;;;;2.19;100.00;102151.44;5092860;28;20535;-68
2022/12/02 04:25:33;;;;;;;33.20;13.00;;;;;;;2.15;100.00;102150.22;5092887;28;20488;-68
2022/12/02 04:27:59;;;;;;;28.23;12.37;;;;;;;2.15;100.00;102148.34;5092921;28;20456;-68
2022/12/02 04:30:26;;;;;;;39.93;13.60;;;;;;;2.11;100.00;102149.78;5093402;28;20976;-67
2022/12/02 04:32:53;;;;;;;36.43;13.03;;;;;;;2.14;100.00;102148.56;5092294;28;20728;-67
2022/12/02 04:35:19;;;;;;;37.20;14.47;;;;;;;2.18;100.00;102149.81;5093460;28;20905;-68
2022/12/02 04:37:46;;;;;;;32.60;13.20;;;;;;;2.19;100.00;102152.25;5092712;28;20476;-67
2022/12/02 04:40:13;;;;;;;34.53;13.27;;;;;;;2.11;100.00;102148.97;5093468;28;20466;-68
2022/12/02 04:42:41;;;;;;;38.70;12.57;;;;;;;2.15;100.00;102152.88;5092770;28;20471;-68
2022/12/02 04:45:09;;;;;;;40.77;13.50;;;;;;;2.16;100.00;102146.50;5093577;28;20448;-68
2022/12/02 04:47:35;;;;;;;35.07;12.63;;;;;;;2.18;100.00;102149.81;5092253;28;20476;-68
2022/12/02 04:50:02;;;;;;;28.00;12.27;;;;;;;2.10;100.00;102144.66;5093039;28;20522;-68
2022/12/02 04:52:29;;;;;;;30.40;12.07;;;;;;;2.15;100.00;102136.84;5093345;28;20587;-68
2022/12/02 04:54:55;;;;;;;29.83;13.43;;;;;;;2.23;100.00;102139.31;5092124;28;21041;-69
2022/12/02 04:57:22;;;;;;;30.03;13.07;;;;;;;2.14;100.00;102137.88;5093295;28;20945;-68
2022/12/02 04:59:50;;;;;;;30.87;12.90;;;;;;;2.12;100.00;102134.56;5091733;28;20528;-69
2022/12/02 05:02:16;;;;;;;32.77;14.27;;;;;;;2.16;100.00;102141.97;5092795;28;20464;-68
2022/12/02 05:04:43;;;;;;;32.73;13.67;;;;;;;2.19;100.00;102141.56;5093378;28;20531;-68
2022/12/02 05:07:10;;;;;;;35.20;14.10;;;;;;;2.21;100.00;102144.88;5092335;28;20463;-69
2022/12/02 05:09:36;;;;;;;25.43;12.53;;;;;;;2.21;100.00;102138.69;5092299;28;20465;-69
2022/12/02 05:12:03;;;;;;;37.13;10.70;;;;;;;2.22;100.00;102135.00;5093058;28;20456;-69
2022/12/02 05:14:29;;;;;;;30.50;12.33;;;;;;;2.14;100.00;102136.03;5092668;28;20457;-69
2022/12/02 05:16:57;;;;;;;25.17;12.03;;;;;;;2.10;100.00;102132.13;5092851;28;20472;-69
2022/12/02 05:19:24;;;;;;;30.87;13.00;;;;;;;2.10;100.00;102134.78;5092011;28;20543;-68
2022/12/02 05:21:50;;;;;;;29.37;11.77;;;;;;;2.09;100.00;102135.00;5094253;28;20503;-69
2022/12/02 05:24:17;;;;;;;29.53;13.70;;;;;;;2.06;100.00;102140.75;5095788;28;20452;-69
2022/12/02 05:26:44;;;;;;;31.73;13.43;;;;;;;2.05;100.00;102139.13;5096377;28;20484;-69
2022/12/02 05:29:10;;;;;;;32.93;14.93;;;;;;;1.97;100.00;102138.28;5096346;28;20535;-69
2022/12/02 05:31:37;;;;;;;29.67;14.40;;;;;;;2.00;100.00;102137.06;5096588;28;20531;-69
2022/12/02 05:34:05;;;;;;;44.10;15.70;;;;;;;1.97;100.00;102134.78;5096147;28;20480;-69
2022/12/02 05:36:31;;;;;;;34.50;14.50;;;;;;;1.95;100.00;102140.34;5096563;28;20448;-69
2022/12/02 05:38:58;;;;;;;33.33;15.17;;;;;;;1.97;100.00;102140.16;5096890;28;20444;-67
2022/12/02 05:41:24;;;;;;;29.63;13.33;;;;;;;2.11;100.00;102136.44;5095301;28;20567;-69
2022/12/02 05:43:51;;;;;;;34.77;13.63;;;;;;;2.08;100.00;102136.88;5096455;28;20432;-69
2022/12/02 05:46:19;;;;;;;39.20;13.77;;;;;;;2.05;100.00;102137.28;5095760;28;20563;-69
2022/12/02 05:48:48;;;;;;;44.33;14.07;;;;;;;2.13;100.00;102137.06;5096451;28;20447;-69
2022/12/02 05:51:17;;;;;;;35.00;13.30;;;;;;;2.09;100.00;102135.84;5095273;28;20509;-69
2022/12/02 05:53:45;;;;;;;38.30;12.47;;;;;;;2.12;100.00;102138.06;5096588;28;20563;-68
2022/12/02 05:56:17;;;;;;;30.00;10.90;;;;;;;2.13;100.00;102137.06;5095844;28;20462;-69
2022/12/02 05:58:44;;;;;;;34.43;13.17;;;;;;;2.15;100.00;102131.50;5096884;28;20412;-69
2022/12/02 06:01:20;;;;;;;38.57;13.90;;;;;;;2.09;100.00;102127.81;5094003;28;21108;-70
2022/12/02 06:03:47;;;;;;;34.00;13.90;;;;;;;2.05;100.00;102126.59;5076177;28;20516;-69
2022/12/02 06:06:14;;;;;;;28.20;12.70;;;;;;;2.05;100.00;102134.59;5094460;28;20440;-68
2022/12/02 06:08:43;;;;;;;31.33;11.47;;;;;;;2.07;100.00;102132.53;5095608;28;20462;-69
2022/12/02 06:11:23;;;;;;;33.70;13.17;;;;;;;2.03;100.00;102136.63;5095291;28;20476;-69
2022/12/02 06:13:50;;;;;;;30.87;11.57;;;;;;;2.01;100.00;102123.50;5096316;28;20535;-69
2022/12/02 06:16:23;;;;;;;30.03;13.17;;;;;;;2.01;100.00;102133.38;5094592;28;20460;-69
2022/12/02 06:18:50;;;;;;;34.07;12.50;;;;;;;1.96;100.00;102135.84;5096386;28;20424;-68
2022/12/02 06:21:20;;;;;;;31.17;13.10;;;;;;;1.95;100.00;102134.19;5094853;28;20487;-68
2022/12/02 06:23:50;;;;;;;32.83;13.50;;;;;;;1.93;100.00;102130.88;5096119;28;20436;-68
2022/12/02 06:26:19;;;;;;;34.10;13.00;;;;;;;2.02;100.00;102140.34;5095254;28;20547;-69
2022/12/02 06:28:49;;;;;;;39.40;14.73;;;;;;;2.04;100.00;102138.31;5095684;28;20963;-68
2022/12/02 06:31:18;;;;;;;25.60;11.10;;;;;;;2.05;100.00;102133.78;5085945;28;20564;-68
2022/12/02 06:33:47;;;;;;;38.27;14.43;;;;;;;1.99;100.00;102140.75;5075035;28;20477;-68
2022/12/02 06:36:17;;;;;;;30.60;13.10;;;;;;;1.96;100.00;102139.31;5088920;28;20988;-68
2022/12/02 06:38:50;;;;;;;31.23;12.03;;;;;;;2.02;100.00;102141.16;5095773;28;20468;-68
2022/12/02 06:41:21;;;;;;;31.17;12.90;;;;;;;2.07;100.00;102151.22;5094932;28;20575;-67
2022/12/02 06:46:29;;;;;;;33.27;11.43;;;;;;;2.11;100.00;102146.31;5094337;28;20487;-68
2022/12/02 06:48:56;;;;;;;32.50;14.57;;;;;;;2.08;100.00;102152.91;5095616;28;20521;-69
2022/12/02 06:51:23;;;;;;;28.27;11.43;;;;;;;2.05;100.00;102161.31;5094335;28;21039;-68
2022/12/02 06:53:51;;;;;;;30.70;13.67;;;;;;;2.03;100.00;102161.50;5094628;28;20869;-69
2022/12/02 06:56:24;;;;;;;26.30;11.70;;;;;;;2.01;100.00;102158.22;5094612;28;20464;-68
2022/12/02 06:58:56;;;;;;;34.37;13.90;;;;;;;1.97;100.00;102161.53;5090520;28;20543;-68
2022/12/02 07:01:26;;;;;;;28.53;11.83;;;;;;;2.06;100.00;102162.13;5090250;28;20567;-69
2022/12/02 07:04:31;;;;;;;27.07;12.13;;;;;;;2.10;100.00;102150.00;5094192;28;20484;-66
2022/12/02 07:07:00;;;;;;;33.50;12.60;;;;;;;2.15;100.00;102140.34;5093636;28;20479;-69
2022/12/02 07:09:36;;;;;;;30.23;11.27;;;;;;;2.18;100.00;102145.28;5093804;28;20492;-70
2022/12/02 07:12:02;;;;;;;25.67;10.87;;;;;;;2.21;100.00;102139.53;5095085;28;20464;-70
2022/12/02 07:14:37;;;;;;;27.50;11.90;;;;;;;2.22;100.00;102137.69;5087289;28;20485;-67
2022/12/02 07:17:14;;;;;;;28.27;10.90;;;;;;;2.12;100.00;102143.41;5095131;28;20887;-71
2022/12/02 07:19:45;;;;;;;29.27;12.23;;;;;;;2.14;100.00;102141.38;5094196;28;20468;-70
2022/12/02 07:22:15;;;;;;;22.00;10.73;;;;;;;2.15;100.00;102143.00;5094719;28;20924;-70
2022/12/02 07:24:49;;;;;;;31.97;13.47;;;;;;;2.17;100.00;102146.31;5085120;28;20454;-71
2022/12/02 07:27:22;;;;;;;25.90;10.97;;;;;;;2.14;100.00;102135.22;5074659;28;20432;-67
2022/12/02 07:29:49;;;;;;;37.93;12.17;;;;;;;2.10;100.00;102142.81;5091986;28;20901;-69
2022/12/02 07:32:16;;;;;;;22.63;9.30;;;;;;;2.09;100.00;102146.53;5094763;28;20523;-68
2022/12/02 07:34:43;;;;;;;21.17;10.57;;;;;;;2.12;100.00;102140.75;5082723;28;20496;-70
2022/12/02 07:37:09;;;;;;;27.63;9.93;;;;;;;2.21;100.00;102149.38;5074356;28;20532;-71
2022/12/02 07:39:36;;;;;;;28.03;12.70;;;;;;;2.20;100.00;102147.75;5090476;28;20835;-70
2022/12/02 07:42:04;;;;;;;27.83;11.00;;;;;;;2.20;100.00;102153.91;5093650;28;20556;-69
2022/12/02 07:44:30;;;;;;;25.37;10.30;;;;;;;2.22;100.00;102157.22;5093466;28;20468;-71
2022/12/02 07:46:57;;;;;;;22.87;11.50;;;;;;;2.27;100.00;102151.25;5092551;28;20958;-70
2022/12/02 07:49:23;;;;;;;27.00;11.00;;;;;;;2.24;100.00;102152.47;5093593;28;20817;-73
2022/12/02 07:51:50;;;;;;;29.50;11.53;;;;;;;2.22;100.00;102148.38;5094409;28;20460;-69
2022/12/02 07:54:17;;;;;;;25.50;11.70;;;;;;;2.24;100.00;102159.66;5093069;28;21096;-69
2022/12/02 07:56:43;;;;;;;25.40;11.67;;;;;;;2.24;100.00;102157.81;5081303;28;20548;-68
2022/12/02 07:59:11;;;;;;;28.47;11.00;;;;;;;2.15;100.00;102158.22;5093958;28;20523;-69
2022/12/02 08:01:38;;;;;;;25.10;10.67;;;;;;;2.18;100.00;102161.31;5092504;28;20937;-68
2022/12/02 08:04:04;;;;;;;26.00;9.97;;;;;;;2.14;100.00;102162.75;5091494;28;20534;-67
2022/12/02 08:06:31;;;;;;;23.27;8.83;;;;;;;2.20;100.00;102155.75;5094149;28;20476;-68
2022/12/02 08:08:57;;;;;;;24.27;9.23;;;;;;;2.23;100.00;102156.19;5093192;28;20456;-69
2022/12/02 08:11:24;;;;;;;28.63;10.60;;;;;;;2.23;100.00;102161.53;5093540;28;20484;-68
2022/12/02 08:13:50;;;;;;;28.97;10.20;;;;;;;2.19;100.00;102154.13;5092752;28;20576;-69
2022/12/02 08:16:18;;;;;;;27.07;10.67;;;;;;;2.26;100.00;102157.63;5091305;28;20461;-70
2022/12/02 08:18:45;;;;;;;23.30;10.63;;;;;;;2.26;100.00;102155.78;5092994;28;20436;-69
2022/12/02 08:21:11;;;;;;;26.73;10.70;;;;;;;2.36;100.00;102147.31;5093437;28;20516;-69
2022/12/02 08:23:38;;;;;;;23.33;9.60;;;;;;;2.34;100.00;102149.38;5093820;28;20439;-69
2022/12/02 08:26:05;;;;;;;25.57;10.23;;;;;;;2.38;100.00;102152.47;5093539;28;20436;-68
2022/12/02 08:28:31;;;;;;;23.90;9.30;;;;;;;2.45;100.00;102155.94;5093770;28;20454;-68
2022/12/02 08:30:58;;;;;;;27.50;11.37;;;;;;;2.36;100.00;102158.03;5093584;28;20457;-69
2022/12/02 08:33:26;;;;;;;20.57;9.40;;;;;;;2.42;100.00;102161.72;5093206;28;20480;-69
2022/12/02 08:35:53;;;;;;;26.60;10.00;;;;;;;2.43;100.00;102160.66;5093720;28;20476;-69
2022/12/02 08:38:19;;;;;;;21.73;8.20;;;;;;;2.43;100.00;102160.66;5093631;28;20450;-69
2022/12/02 08:40:46;;;;;;;26.80;11.37;;;;;;;2.42;100.00;102161.72;5093040;28;20551;-69
2022/12/02 08:43:13;;;;;;;29.13;10.07;;;;;;;2.46;100.00;102173.63;5092993;28;20475;-69
2022/12/02 08:45:39;;;;;;;27.83;9.73;;;;;;;2.45;100.00;102166.66;5093030;28;20454;-69
2022/12/02 08:48:06;;;;;;;29.70;11.30;;;;;;;2.51;100.00;102165.81;5093678;28;20442;-69
2022/12/02 08:50:34;;;;;;;24.37;9.70;;;;;;;2.64;100.00;102159.63;5093422;28;20486;-69
2022/12/02 08:53:00;;;;;;;29.97;12.20;;;;;;;2.56;100.00;102166.00;5092709;28;20456;-69
2022/12/02 08:55:27;;;;;;;27.67;9.90;;;;;;;2.58;100.00;102158.59;5093393;28;20882;-69
2022/12/02 08:57:54;;;;;;;26.47;9.80;;;;;;;2.58;100.00;102150.59;5092919;28;20444;-69
2022/12/02 09:00:20;;;;;;;22.70;10.00;;;;;;;2.62;100.00;102157.16;5092947;28;20460;-68
2022/12/02 09:02:47;;;;;;;22.57;9.53;;;;;;;2.66;100.00;102157.56;5093306;28;20479;-69
2022/12/02 09:05:14;;;;;;;21.17;9.60;;;;;;;2.63;100.00;102174.84;5093252;28;20491;-68
2022/12/02 09:07:43;;;;;;;25.90;10.00;;;;;;;2.73;100.00;102167.19;5092980;28;20472;-69
2022/12/02 09:10:12;;;;;;;21.87;10.07;;;;;;;2.66;100.00;102162.91;5093142;28;20547;-68
2022/12/02 09:12:38;;;;;;;34.30;10.70;;;;;;;2.66;100.00;102162.91;5093162;28;20436;-70
2022/12/02 09:15:07;;;;;;;23.10;8.83;;;;;;;2.67;100.00;102170.72;5092804;28;21009;-69
2022/12/02 09:17:33;;;;;;;29.27;11.20;;;;;;;2.58;100.00;102163.13;5093155;28;20807;-68
2022/12/02 09:20:00;;;;;;;35.20;10.10;;;;;;;2.64;100.00;102160.44;5092612;28;20941;-68
2022/12/02 09:22:26;;;;;;;25.33;9.00;;;;;;;2.66;100.00;102162.91;5093258;28;20508;-68
2022/12/02 09:24:54;;;;;;;25.90;11.17;;;;;;;2.67;100.00;102154.69;5093125;28;20432;-69
2022/12/02 09:27:21;;;;;;;20.60;8.97;;;;;;;2.74;100.00;102150.09;5093131;28;20831;-68
2022/12/02 09:29:47;;;;;;;20.10;8.97;;;;;;;2.75;100.00;102162.47;5093005;28;20483;-69
2022/12/02 09:32:14;;;;;;;27.90;11.17;;;;;;;2.75;100.00;102154.47;5092686;28;20505;-69
2022/12/02 09:34:40;;;;;;;34.33;11.70;;;;;;;2.79;100.00;102157.53;5092573;28;20859;-68
2022/12/02 09:37:07;;;;;;;20.60;8.90;;;;;;;2.78;100.00;102167.38;5092681;28;20436;-68
2022/12/02 09:39:33;;;;;;;24.20;8.63;;;;;;;2.85;100.00;102163.91;5092972;28;20479;-69
2022/12/02 09:42:02;;;;;;;22.40;9.53;;;;;;;2.84;100.00;102164.94;5092878;28;20460;-68
2022/12/02 09:44:29;;;;;;;21.27;9.70;;;;;;;2.81;100.00;102154.63;5092573;28;20523;-68
2022/12/02 09:46:55;;;;;;;26.40;10.57;;;;;;;2.67;100.00;102149.31;5092872;28;20443;-69
2022/12/02 09:49:22;;;;;;;21.87;9.90;;;;;;;2.67;100.00;102154.69;5092942;28;20552;-68
2022/12/02 09:51:49;;;;;;;26.27;10.80;;;;;;;2.70;100.00;102138.22;5092849;28;20466;-68
2022/12/02 09:54:16;;;;;;;28.27;10.87;;;;;;;2.74;100.00;102144.75;5092806;28;20480;-68
2022/12/02 09:56:43;;;;;;;27.07;10.97;;;;;;;2.79;100.00;102152.19;5092526;28;20440;-68
2022/12/02 09:59:15;;;;;;;23.60;8.97;;;;;;;2.72;100.00;102136.13;5092805;28;20436;-68
2022/12/02 10:01:43;;;;;;;26.97;11.10;;;;;;;2.76;100.00;102132.00;5092459;28;20997;-68
2022/12/02 10:04:13;;;;;;;21.50;9.50;;;;;;;2.82;100.00;102126.84;5092726;28;20473;-68
2022/12/02 10:06:40;;;;;;;27.17;10.83;;;;;;;2.80;100.00;102128.91;5092655;28;20451;-68
2022/12/02 10:09:07;;;;;;;20.53;8.27;;;;;;;2.70;100.00;102127.50;5092870;28;20455;-68
2022/12/02 10:11:33;;;;;;;28.17;10.53;;;;;;;2.76;100.00;102126.66;5096335;28;20551;-68
2022/12/02 10:14:01;;;;;;;23.90;9.47;;;;;;;2.83;100.00;102125.81;5096154;28;20569;-68
2022/12/02 10:16:29;;;;;;;24.97;10.27;;;;;;;2.77;100.00;102125.63;5095970;28;20907;-67
2022/12/02 10:19:00;;;;;;;23.50;9.63;;;;;;;2.75;100.00;102117.00;5096259;28;20523;-69
2022/12/02 10:21:26;;;;;;;23.77;9.47;;;;;;;2.69;100.00;102117.81;5095772;28;20482;-68
2022/12/02 10:23:56;;;;;;;29.00;11.30;;;;;;;2.57;100.00;102113.31;5095815;28;20443;-68
2022/12/02 10:26:23;;;;;;;19.33;9.23;;;;;;;2.63;100.00;102117.84;5096064;28;20540;-68
2022/12/02 10:29:01;;;;;;;25.40;9.73;;;;;;;2.70;100.00;102115.97;5096052;28;20447;-68
2022/12/02 10:31:29;;;;;;;18.53;9.53;;;;;;;2.77;100.00;102119.44;5095683;28;21027;-67
2022/12/02 10:33:58;;;;;;;28.87;9.90;;;;;;;2.76;100.00;102118.63;5095585;28;20931;-69
2022/12/02 10:36:33;;;;;;;25.77;10.80;;;;;;;2.65;100.00;102111.25;5095894;28;20480;-68
2022/12/02 10:39:21;;;;;;;20.47;8.60;;;;;;;2.66;100.00;102112.09;5095444;28;20443;-68
2022/12/02 10:41:48;;;;;;;25.20;9.37;;;;;;;2.66;100.00;102110.25;5095727;28;20464;-68
2022/12/02 10:44:17;;;;;;;25.20;10.17;;;;;;;2.65;100.00;102111.25;5095621;28;20523;-68
2022/12/02 10:46:46;;;;;;;30.10;10.60;;;;;;;2.51;100.00;102107.78;5096255;28;20491;-69
2022/12/02 10:49:25;;;;;;;27.10;9.80;;;;;;;2.50;100.00;102100.81;5095462;28;20518;-67
2022/12/02 10:51:53;;;;;;;26.73;10.77;;;;;;;2.58;100.00;102102.44;5095602;28;20492;-68
2022/12/02 10:54:24;;;;;;;28.37;9.83;;;;;;;2.62;100.00;102103.66;5095171;28;20522;-68
2022/12/02 10:56:51;;;;;;;37.47;11.07;;;;;;;2.61;100.00;102091.34;5095231;28;20922;-68
2022/12/02 10:59:17;;;;;;;21.50;8.70;;;;;;;2.58;100.00;102096.28;5095157;28;20479;-67
2022/12/02 11:01:46;;;;;;;22.70;9.30;;;;;;;2.51;100.00;102090.94;5095405;28;20495;-68
2022/12/02 11:04:13;;;;;;;30.60;11.03;;;;;;;2.48;100.00;102100.22;5095036;28;20590;-68
2022/12/02 11:06:40;;;;;;;30.67;11.20;;;;;;;2.53;100.00;102099.56;5095017;28;20444;-68
2022/12/02 11:09:07;;;;;;;27.50;11.57;;;;;;;2.54;100.00;102093.19;5095280;28;20545;-68
2022/12/02 11:11:39;;;;;;;36.13;10.10;;;;;;;2.53;100.00;102080.84;5095782;28;20463;-68
2022/12/02 11:14:11;;;;;;;27.70;10.40;;;;;;;2.56;100.00;102083.09;5095549;28;20476;-68
2022/12/02 11:16:47;;;;;;;29.13;11.73;;;;;;;2.63;100.00;102094.59;5094830;28;20417;-68
2022/12/02 11:19:39;;;;;;;25.63;10.87;;;;;;;2.57;100.00;102098.13;5095267;28;20435;-67